Flight Track Log - Related Links

Times and Time Zones

All times are in EDT time to prevent confusion due to time zone crossing. See the HAL285 flight status page for this flight to view local times or setup timezone preferences in your user account.

Time Position Orientation Groundspeed Altitude Reporting Facility
EDT Latitude Longitude Course Direction KTS MPH feet Rate Location/Type
Wed 01:17:12 PM 20.9000 -156.4167 255° West 150 173 900  Level Honolulu Center
Wed 01:18:12 PM 20.9500 -156.4167 360° North 190 219 2,300 1,537 Climbing Honolulu Center
Wed 01:19:00 PM 20.8371 -156.6553 250° West  Level FlightAware Approximate
Wed 01:19:13 PM 21.0000 -156.4667 317° Northwest 230 265 4,000  Level Honolulu Center
Wed 01:20:00 PM 20.8142 -156.7409 250° West  Level FlightAware Approximate
Wed 01:20:13 PM 21.0500 -156.5167 317° Northwest 250 288 6,300  Level Honolulu Center
Wed 01:21:00 PM 20.7859 -156.8255 250° West  Level FlightAware Approximate
Wed 01:21:13 PM 21.0500 -156.6000 270° West 260 299 8,800  Level Honolulu Center
Wed 01:22:00 PM 20.7637 -156.9121 255° West  Level FlightAware Approximate
Wed 01:22:13 PM 21.0333 -156.6667 255° West 270 311 10,500  Level Honolulu Center
Wed 01:23:13 PM 21.0167 -156.7667 260° West 310 357 12,000 1,600 Climbing Honolulu Center
Wed 01:24:13 PM 21.0167 -156.8500 270° West 340 391 13,700 1,000 Climbing Honolulu Center
Wed 01:25:13 PM 21.0000 -156.9667 261° West 350 403 14,000 99 Climbing Honolulu Center
Wed 01:26:14 PM 20.9833 -157.0667 260° West 360 414 13,900 -50 Descending Honolulu Center
Wed 01:27:13 PM 20.9667 -157.1667 260° West 340 391 13,900 50 Level Honolulu Center
Wed 01:28:13 PM 20.9500 -157.2667 260° West 350 403 14,000 -149 Climbing Honolulu Center
Wed 01:29:14 PM 20.9333 -157.3667 260° West 340 391 13,600 -694 Descending Honolulu Center
Wed 01:30:14 PM 20.9333 -157.4500 270° West 280 322 12,600 -1,400 Descending Honolulu Center
Wed 01:31:14 PM 20.9333 -157.5333 270° West 270 311 10,800 -1,900 Descending Honolulu Center
Wed 01:32:14 PM 20.9667 -157.6167 293° West 270 311 8,800 -2,000 Descending Honolulu Center
Wed 01:33:14 PM 20.9833 -157.6833 285° West 280 322 6,800 -1,850 Descending Honolulu Center
Wed 01:34:14 PM 21.0167 -157.7667 293° West 280 322 5,100 -1,438 Descending Honolulu Center
Wed 01:35:15 PM 21.0500 -157.8333 298° West 250 288 3,900 -1,140 Descending Honolulu Center
Wed 01:36:15 PM 21.1000 -157.8833 317° Northwest 250 288 2,800 -1,100 Descending Honolulu Center

Login

Don't have an account? Register now (free) for customized features, flight alerts, and more!